createdAt,value
2019-04-10T00:01:01.449Z,24.97
2019-04-10T00:06:08.899Z,25.37
2019-04-10T00:11:16.591Z,23.77
2019-04-10T00:16:23.091Z,25.10
2019-04-10T00:21:30.001Z,25.57
2019-04-10T00:26:37.494Z,26.50
2019-04-10T00:31:44.576Z,25.57
2019-04-10T00:36:53.365Z,24.50
2019-04-10T00:42:01.458Z,26.10
2019-04-10T00:47:08.351Z,27.20
2019-04-10T00:52:16.374Z,26.87
2019-04-10T00:57:25.529Z,27.90
2019-04-10T01:02:32.377Z,28.83
2019-04-10T01:07:41.156Z,32.70
2019-04-10T01:12:48.339Z,30.43
2019-04-10T01:17:56.974Z,29.93
2019-04-10T01:23:03.877Z,29.77
2019-04-10T01:28:10.981Z,30.43
2019-04-10T01:33:19.334Z,33.10
2019-04-10T01:38:27.200Z,35.40
2019-04-10T01:43:33.299Z,33.07
2019-04-10T01:48:40.178Z,32.90
2019-04-10T01:53:46.218Z,33.67
2019-04-10T01:58:54.230Z,33.33
2019-04-10T02:04:00.760Z,33.97
2019-04-10T02:09:10.947Z,33.40
2019-04-10T02:14:18.387Z,34.10
2019-04-10T02:19:26.105Z,33.17
2019-04-10T02:24:35.558Z,32.40
2019-04-10T02:29:42.712Z,33.73
2019-04-10T02:34:50.688Z,34.17
2019-04-10T02:40:01.030Z,34.23
2019-04-10T02:45:08.457Z,33.57
2019-04-10T02:50:16.602Z,35.13
2019-04-10T02:55:25.061Z,34.17
2019-04-10T03:00:31.231Z,32.43
2019-04-10T03:05:38.518Z,33.90
2019-04-10T03:10:51.783Z,35.93
2019-04-10T03:15:55.869Z,36.37
2019-04-10T03:21:04.844Z,36.70
2019-04-10T03:26:16.033Z,35.27
2019-04-10T03:31:24.688Z,36.63
2019-04-10T03:36:41.286Z,35.67
2019-04-10T03:41:48.383Z,37.17
2019-04-10T03:46:57.162Z,38.57
2019-04-10T03:52:05.193Z,36.63
2019-04-10T03:57:12.140Z,36.07
2019-04-10T04:02:20.671Z,35.17
2019-04-10T04:07:27.560Z,36.00
2019-04-10T04:12:35.061Z,37.77
2019-04-10T04:17:42.787Z,34.70
2019-04-10T04:22:49.673Z,35.03
2019-04-10T04:27:56.541Z,34.37
2019-04-10T04:33:03.370Z,34.57
2019-04-10T04:38:11.407Z,33.70
2019-04-10T04:43:19.424Z,33.40
2019-04-10T04:48:26.397Z,33.03
2019-04-10T04:53:34.360Z,32.03
2019-04-10T04:58:41.939Z,33.90
2019-04-10T05:03:48.866Z,32.47
2019-04-10T05:08:57.346Z,31.97
2019-04-10T05:14:04.867Z,32.87
2019-04-10T05:19:12.211Z,34.80
2019-04-10T05:24:20.113Z,33.20
2019-04-10T05:29:30.383Z,34.17
2019-04-10T05:34:36.170Z,36.37
2019-04-10T05:39:50.295Z,36.63
2019-04-10T05:44:52.884Z,36.43
2019-04-10T05:50:02.020Z,35.20
2019-04-10T05:55:10.134Z,36.40
2019-04-10T06:00:18.996Z,35.87
2019-04-10T06:05:27.837Z,31.83
2019-04-10T06:10:34.402Z,34.83
2019-04-10T06:15:41.380Z,35.47
2019-04-10T06:20:50.599Z,37.23
2019-04-10T06:25:58.371Z,37.53
2019-04-10T06:31:06.533Z,39.17
2019-04-10T06:36:15.376Z,36.27
2019-04-10T06:41:22.359Z,36.73
2019-04-10T06:46:29.324Z,33.80
2019-04-10T06:51:35.520Z,35.53
2019-04-10T06:56:45.927Z,36.00
2019-04-10T07:01:56.692Z,36.03
2019-04-10T07:07:07.794Z,35.37
2019-04-10T07:12:10.432Z,35.07
2019-04-10T07:17:17.966Z,35.27
2019-04-10T07:22:26.926Z,33.07
2019-04-10T07:27:38.255Z,32.30
2019-04-10T07:32:47.536Z,33.40
2019-04-10T07:37:56.667Z,32.63
2019-04-10T07:43:02.146Z,32.67
2019-04-10T07:48:10.734Z,31.37
2019-04-10T07:53:19.004Z,30.80
2019-04-10T07:58:26.935Z,29.20
2019-04-10T08:03:34.312Z,30.07
2019-04-10T08:08:42.610Z,30.70
2019-04-10T08:13:49.739Z,29.37
2019-04-10T08:18:57.836Z,28.20
2019-04-10T08:24:05.200Z,27.60
2019-04-10T08:29:12.133Z,27.77
2019-04-10T08:34:19.500Z,28.57
2019-04-10T08:39:36.041Z,28.33
2019-04-10T08:44:54.250Z,28.00
2019-04-10T08:50:03.583Z,25.80
2019-04-10T08:55:13.442Z,25.07
2019-04-10T09:00:21.622Z,24.47
2019-04-10T09:05:30.716Z,24.60
2019-04-10T09:10:38.502Z,25.47
2019-04-10T09:15:45.770Z,22.43
2019-04-10T09:20:55.698Z,24.83
2019-04-10T09:26:02.435Z,24.73
2019-04-10T09:31:10.313Z,24.77
2019-04-10T09:36:18.230Z,25.37
2019-04-10T09:41:26.563Z,24.20
2019-04-10T09:46:33.201Z,24.67
2019-04-10T09:51:40.488Z,24.17
2019-04-10T09:56:52.813Z,23.13
2019-04-10T10:02:02.661Z,24.70
2019-04-10T10:07:10.379Z,23.53
2019-04-10T10:12:17.948Z,24.63
2019-04-10T10:17:26.110Z,23.93
2019-04-10T10:22:33.877Z,21.23
2019-04-10T10:27:44.670Z,24.23
2019-04-10T10:32:53.205Z,22.10
2019-04-10T10:38:01.084Z,24.97
2019-04-10T10:43:09.981Z,24.33
2019-04-10T10:48:19.849Z,22.77
2019-04-10T10:53:26.674Z,23.13
2019-04-10T10:58:32.715Z,20.30
2019-04-10T11:03:38.850Z,24.50
2019-04-10T11:08:47.720Z,23.73
2019-04-10T11:13:55.099Z,22.83
2019-04-10T11:19:02.788Z,22.73
2019-04-10T11:24:13.648Z,20.17
2019-04-10T11:29:22.061Z,17.73
2019-04-10T11:34:29.228Z,17.93
2019-04-10T11:39:40.314Z,18.33
2019-04-10T11:44:49.337Z,17.93
2019-04-10T11:49:57.630Z,16.90
2019-04-10T11:55:10.595Z,15.60
2019-04-10T12:00:19.661Z,16.37
2019-04-10T12:05:25.836Z,15.80
2019-04-10T12:15:42.927Z,15.57
2019-04-10T12:20:51.535Z,16.17
2019-04-10T12:25:59.136Z,16.20
2019-04-10T12:31:06.010Z,16.13
2019-04-10T12:36:12.869Z,14.40
2019-04-10T12:41:19.317Z,14.17
2019-04-10T12:46:26.732Z,15.13
2019-04-10T12:51:32.584Z,14.47
2019-04-10T12:56:40.187Z,17.30
2019-04-10T13:01:47.091Z,13.17
2019-04-10T13:06:54.779Z,13.77
2019-04-10T13:12:00.749Z,15.97
2019-04-10T13:17:08.827Z,13.60
2019-04-10T13:22:17.991Z,14.07
2019-04-10T13:27:24.448Z,15.13
2019-04-10T13:32:31.930Z,11.00
2019-04-10T13:37:39.408Z,13.07
2019-04-10T13:42:47.436Z,13.10
2019-04-10T13:47:54.643Z,12.40
2019-04-10T13:53:01.668Z,11.53
2019-04-10T13:58:08.903Z,11.87
2019-04-10T14:03:20.696Z,11.27
2019-04-10T14:08:47.387Z,12.00
2019-04-10T14:13:37.917Z,11.13
2019-04-10T14:18:48.764Z,10.97
2019-04-10T14:23:55.890Z,14.47
2019-04-10T14:29:05.219Z,10.87
2019-04-10T14:39:31.327Z,9.37
2019-04-10T14:44:39.299Z,8.67
2019-04-10T14:49:46.219Z,10.13
2019-04-10T14:54:52.723Z,11.10
2019-04-10T14:59:58.275Z,10.60
2019-04-10T15:05:08.135Z,11.17
2019-04-10T15:10:15.901Z,9.03
2019-04-10T15:15:24.015Z,9.40
2019-04-10T15:20:31.309Z,9.67
2019-04-10T15:25:41.601Z,9.90
2019-04-10T15:30:50.747Z,9.60
2019-04-10T15:35:57.602Z,8.13
2019-04-10T15:41:06.780Z,9.40
2019-04-10T15:46:15.064Z,9.10
2019-04-10T15:51:22.447Z,8.37
2019-04-10T15:56:31.235Z,12.80
2019-04-10T16:01:39.279Z,8.10
2019-04-10T16:06:47.480Z,9.10
2019-04-10T16:11:58.530Z,8.53
2019-04-10T16:17:06.972Z,8.53
2019-04-10T16:22:19.392Z,8.60
2019-04-10T16:27:27.148Z,8.43
2019-04-10T16:32:33.086Z,7.53
2019-04-10T16:37:40.314Z,8.03
2019-04-10T16:42:46.868Z,8.37
2019-04-10T16:47:55.036Z,7.80
2019-04-10T16:53:03.527Z,8.43
2019-04-10T16:58:10.285Z,10.03
2019-04-10T17:03:17.630Z,7.77
2019-04-10T17:08:25.317Z,8.50
2019-04-10T17:13:31.135Z,8.03
2019-04-10T17:18:39.180Z,8.77
2019-04-10T17:23:49.100Z,8.50
2019-04-10T17:28:56.539Z,8.80
2019-04-10T17:34:02.812Z,7.93
2019-04-10T17:39:11.567Z,7.80
2019-04-10T17:44:19.350Z,8.40
2019-04-10T17:49:27.628Z,7.23
2019-04-10T17:54:34.580Z,7.87
2019-04-10T17:59:42.920Z,8.10
2019-04-10T18:04:50.389Z,7.47
2019-04-10T18:09:57.952Z,7.87
2019-04-10T18:15:08.166Z,8.30
2019-04-10T18:20:17.824Z,8.07
2019-04-10T18:25:25.669Z,7.87
2019-04-10T18:30:34.522Z,7.67
2019-04-10T18:35:41.108Z,7.57
2019-04-10T18:40:55.982Z,7.63
2019-04-10T18:46:10.189Z,6.93
2019-04-10T18:51:09.188Z,7.70
2019-04-10T18:56:16.687Z,7.70
2019-04-10T19:01:40.758Z,7.60
2019-04-10T19:06:53.709Z,7.90
2019-04-10T19:12:04.414Z,7.20
2019-04-10T19:17:13.172Z,7.10
2019-04-10T19:22:22.561Z,7.30
2019-04-10T19:27:29.296Z,6.97
2019-04-10T19:32:37.464Z,7.50
2019-04-10T19:37:45.804Z,7.27
2019-04-10T19:42:54.438Z,8.17
2019-04-10T19:48:01.333Z,7.80
2019-04-10T19:53:11.149Z,7.83
2019-04-10T19:58:19.624Z,7.40
2019-04-10T20:03:26.458Z,6.87
2019-04-10T20:08:33.581Z,6.93
2019-04-10T20:13:41.376Z,6.60
2019-04-10T20:18:49.359Z,6.17
2019-04-10T20:23:56.391Z,6.60
2019-04-10T20:29:03.108Z,6.63
2019-04-10T20:34:11.669Z,6.40
2019-04-10T20:39:19.704Z,7.37
2019-04-10T20:44:26.995Z,6.80
2019-04-10T20:49:36.430Z,6.33
2019-04-10T20:54:43.246Z,7.03
2019-04-10T20:59:50.937Z,7.10
2019-04-10T21:05:03.173Z,6.77
2019-04-10T21:10:06.942Z,6.30
2019-04-10T21:15:13.451Z,7.17
2019-04-10T21:20:22.481Z,7.00
2019-04-10T21:25:29.065Z,7.40
2019-04-10T21:30:52.898Z,6.67
2019-04-10T21:35:59.684Z,6.30
2019-04-10T21:41:09.533Z,7.07
2019-04-10T21:46:16.475Z,6.30
2019-04-10T21:51:25.396Z,7.23
2019-04-10T21:56:31.379Z,7.07
2019-04-10T22:01:38.113Z,7.43
2019-04-10T22:06:49.489Z,7.43
2019-04-10T22:11:57.509Z,7.53
2019-04-10T22:17:04.730Z,6.90
2019-04-10T22:22:12.704Z,7.67
2019-04-10T22:27:21.353Z,7.13
2019-04-10T22:32:29.045Z,7.97
2019-04-10T22:37:35.631Z,8.27
2019-04-10T22:42:46.326Z,9.00
2019-04-10T23:09:04.920Z,9.57
2019-04-10T23:14:12.397Z,10.10
2019-04-10T23:19:20.063Z,9.33
2019-04-10T23:24:27.631Z,9.23
2019-04-10T23:29:33.773Z,9.90
2019-04-10T23:34:41.678Z,10.30
2019-04-10T23:39:48.306Z,10.60
2019-04-10T23:44:55.397Z,10.10
2019-04-10T23:50:05.967Z,10.83
2019-04-10T23:55:13.621Z,10.40
